Time;durP1;ratioP1;P1;durP2;ratioP2;P2;SDS_P1;SDS_P2;PMS_P1;PMS_P2;Temp;Humidity;BMP_temperature;BMP_pressure;BME280_temperature;BME280_humidity;BME280_pressure;Samples;Min_cycle;Max_cycle;Signal;HPM_P1;HPM_P2
2022/04/14 00:01:59;;;;;;;;;;;25.50;50.70;;;;;;5074186;28;1011;-37
2022/04/14 00:04:26;;;;;;;;;;;25.40;50.70;;;;;;5073811;28;945;-41
2022/04/14 00:06:53;;;;;;;;;;;25.40;50.70;;;;;;5072626;28;1265;-38
2022/04/14 00:09:25;;;;;;;;;;;25.40;50.70;;;;;;5074847;28;995;-38
2022/04/14 00:11:52;;;;;;;;;;;25.40;50.70;;;;;;5074838;28;1909;-39
2022/04/14 00:14:19;;;;;;;;;;;25.50;50.60;;;;;;5073802;28;937;-38
2022/04/14 00:16:46;;;;;;;;;;;25.50;50.50;;;;;;5074134;28;866;-38
2022/04/14 00:19:14;;;;;;;;;;;25.40;50.50;;;;;;5074761;28;938;-37
2022/04/14 00:21:41;;;;;;;;;;;25.40;50.70;;;;;;5074643;28;956;-38
2022/04/14 00:24:08;;;;;;;;;;;25.40;50.80;;;;;;5075407;28;671;-38
2022/04/14 00:26:34;;;;;;;;;;;25.40;50.60;;;;;;5075234;28;1028;-38
2022/04/14 00:29:01;;;;;;;;;;;25.40;50.50;;;;;;5074329;28;980;-37
2022/04/14 00:31:28;;;;;;;;;;;25.40;51.70;;;;;;5074459;28;997;-38
2022/04/14 00:33:55;;;;;;;;;;;25.50;50.70;;;;;;5074663;28;1901;-37
2022/04/14 00:36:23;;;;;;;;;;;25.40;50.70;;;;;;5075857;28;932;-41
2022/04/14 00:38:50;;;;;;;;;;;25.40;50.60;;;;;;5076736;28;1167;-39
2022/04/14 00:41:18;;;;;;;;;;;25.40;50.60;;;;;;5075736;28;1016;-38
2022/04/14 00:43:44;;;;;;;;;;;25.40;50.50;;;;;;5075254;28;1291;-39
2022/04/14 00:46:11;;;;;;;;;;;25.40;50.50;;;;;;5074835;28;1173;-38
2022/04/14 00:48:38;;;;;;;;;;;25.40;50.50;;;;;;5073087;28;1007;-38
2022/04/14 00:51:07;;;;;;;;;;;25.40;50.50;;;;;;5074005;28;980;-37
2022/04/14 00:53:37;;;;;;;;;;;25.50;50.50;;;;;;5073107;28;1975;-38
2022/04/14 00:56:04;;;;;;;;;;;25.60;50.50;;;;;;5072958;28;1046;-38
2022/04/14 00:58:31;;;;;;;;;;;25.60;50.30;;;;;;5072808;28;1000;-37
2022/04/14 01:00:58;;;;;;;;;;;25.60;50.20;;;;;;5073563;28;964;-36
2022/04/14 01:03:24;;;;;;;;;;;25.50;50.30;;;;;;5073295;28;982;-37
2022/04/14 01:05:53;;;;;;;;;;;25.50;50.20;;;;;;5073533;28;1000;-38
2022/04/14 01:08:20;;;;;;;;;;;25.50;50.30;;;;;;5072959;28;996;-38
2022/04/14 01:10:48;;;;;;;;;;;25.40;50.20;;;;;;5073294;28;973;-38
2022/04/14 01:13:16;;;;;;;;;;;25.40;50.50;;;;;;5073242;28;1906;-38
2022/04/14 01:15:43;;;;;;;;;;;25.40;50.40;;;;;;5072751;28;999;-39
2022/04/14 01:18:10;;;;;;;;;;;25.40;50.60;;;;;;5073412;28;979;-38
2022/04/14 01:20:37;;;;;;;;;;;25.40;50.50;;;;;;5073438;28;1035;-37
2022/04/14 01:23:04;;;;;;;;;;;25.40;50.30;;;;;;5073388;28;1786;-39
2022/04/14 01:25:34;;;;;;;;;;;25.40;50.50;;;;;;5077373;28;1015;-37
2022/04/14 01:28:02;;;;;;;;;;;25.40;50.50;;;;;;5077259;28;909;-38
2022/04/14 01:30:28;;;;;;;;;;;25.40;50.40;;;;;;5077237;28;956;-39
2022/04/14 01:32:55;;;;;;;;;;;25.40;50.40;;;;;;5077153;28;1983;-38
2022/04/14 01:35:22;;;;;;;;;;;25.40;50.40;;;;;;5077785;28;917;-40
2022/04/14 01:37:49;;;;;;;;;;;25.40;50.40;;;;;;5076669;28;1009;-37
2022/04/14 01:40:16;;;;;;;;;;;25.40;50.50;;;;;;5075832;28;1224;-38
2022/04/14 01:42:44;;;;;;;;;;;25.40;50.70;;;;;;5076972;28;1037;-38
2022/04/14 01:45:11;;;;;;;;;;;25.30;50.50;;;;;;5074928;28;1000;-40
2022/04/14 01:47:39;;;;;;;;;;;25.40;50.60;;;;;;5076784;28;988;-40
2022/04/14 01:50:09;;;;;;;;;;;25.30;50.40;;;;;;5076322;28;915;-37
2022/04/14 01:52:37;;;;;;;;;;;25.40;50.50;;;;;;5076312;28;1898;-39
2022/04/14 01:55:04;;;;;;;;;;;25.40;50.60;;;;;;5076636;28;1079;-39
2022/04/14 01:57:31;;;;;;;;;;;25.30;50.50;;;;;;5076109;28;1066;-39
2022/04/14 01:59:59;;;;;;;;;;;25.30;50.60;;;;;;5076363;28;977;-37
2022/04/14 02:02:26;;;;;;;;;;;25.30;50.50;;;;;;5076445;28;994;-38
2022/04/14 02:04:53;;;;;;;;;;;25.40;50.50;;;;;;5075273;28;1011;-37
2022/04/14 02:07:20;;;;;;;;;;;25.30;50.40;;;;;;5074855;28;1028;-38
2022/04/14 02:09:46;;;;;;;;;;;25.30;50.50;;;;;;5075722;28;1020;-39
2022/04/14 02:12:13;;;;;;;;;;;25.30;50.30;;;;;;5075482;28;1003;-38
2022/04/14 02:14:40;;;;;;;;;;;25.30;50.40;;;;;;5076212;28;1981;-37
2022/04/14 02:17:08;;;;;;;;;;;25.40;50.40;;;;;;5075642;28;1008;-37
2022/04/14 02:19:35;;;;;;;;;;;25.40;50.50;;;;;;5075393;28;1171;-37
2022/04/14 02:22:38;;;;;;;;;;;25.30;50.40;;;;;;5077653;28;1060;-39
2022/04/14 02:25:06;;;;;;;;;;;25.40;50.50;;;;;;5074893;28;1035;-37
2022/04/14 02:27:32;;;;;;;;;;;25.30;50.50;;;;;;5075127;28;1062;-39
2022/04/14 02:29:59;;;;;;;;;;;25.30;50.50;;;;;;5075061;28;988;-38
2022/04/14 02:32:27;;;;;;;;;;;25.30;50.50;;;;;;5076227;28;964;-38
2022/04/14 02:34:54;;;;;;;;;;;25.40;50.40;;;;;;5074790;28;1913;-37
2022/04/14 02:37:21;;;;;;;;;;;25.30;50.50;;;;;;5073766;28;921;-37
2022/04/14 02:39:47;;;;;;;;;;;25.20;50.50;;;;;;5075508;28;1092;-37
2022/04/14 02:42:14;;;;;;;;;;;25.30;50.60;;;;;;5075843;28;1011;-38
2022/04/14 02:44:41;;;;;;;;;;;25.20;50.50;;;;;;5075749;28;933;-37
2022/04/14 02:47:08;;;;;;;;;;;25.30;50.50;;;;;;5075664;28;1003;-37
2022/04/14 02:49:36;;;;;;;;;;;25.30;50.40;;;;;;5076203;28;973;-37
2022/04/14 02:52:03;;;;;;;;;;;25.30;50.30;;;;;;5073837;28;928;-39
2022/04/14 02:54:35;;;;;;;;;;;25.20;50.40;;;;;;5075311;28;1898;-38
2022/04/14 02:57:02;;;;;;;;;;;25.20;50.60;;;;;;5074045;28;1016;-41
2022/04/14 02:59:28;;;;;;;;;;;25.30;50.50;;;;;;5074725;28;1055;-37
2022/04/14 03:01:55;;;;;;;;;;;25.40;50.00;;;;;;5073261;28;1021;-38
2022/04/14 03:04:22;;;;;;;;;;;25.40;50.00;;;;;;5073816;28;977;-38
2022/04/14 03:06:51;;;;;;;;;;;25.40;50.10;;;;;;5074686;28;1008;-38
2022/04/14 03:09:18;;;;;;;;;;;25.40;50.20;;;;;;5074267;28;949;-38
2022/04/14 03:11:44;;;;;;;;;;;25.30;50.20;;;;;;5073207;28;907;-39
2022/04/14 03:14:11;;;;;;;;;;;25.30;50.30;;;;;;5073691;28;1981;-37
2022/04/14 03:16:38;;;;;;;;;;;25.30;50.30;;;;;;5074329;28;949;-38
2022/04/14 03:19:05;;;;;;;;;;;25.30;50.40;;;;;;5074853;28;950;-38
2022/04/14 03:21:31;;;;;;;;;;;25.30;50.30;;;;;;5074289;28;956;-39
2022/04/14 03:23:59;;;;;;;;;;;25.30;50.40;;;;;;5074809;28;972;-37
2022/04/14 03:26:26;;;;;;;;;;;25.30;50.20;;;;;;5074443;28;983;-37
2022/04/14 03:28:53;;;;;;;;;;;25.30;50.10;;;;;;5073728;28;921;-38
2022/04/14 03:31:20;;;;;;;;;;;25.30;50.20;;;;;;5074016;28;1017;-38
2022/04/14 03:33:46;;;;;;;;;;;25.30;50.30;;;;;;5074635;28;1976;-37
2022/04/14 03:36:13;;;;;;;;;;;25.30;50.10;;;;;;5074922;28;1001;-41
2022/04/14 03:38:40;;;;;;;;;;;25.30;50.10;;;;;;5075178;28;1040;-38
2022/04/14 03:41:09;;;;;;;;;;;25.30;50.00;;;;;;5074128;28;973;-44
2022/04/14 03:43:36;;;;;;;;;;;25.20;50.20;;;;;;5074178;28;976;-43
2022/04/14 03:46:03;;;;;;;;;;;25.30;50.30;;;;;;5074872;28;876;-41
2022/04/14 03:48:30;;;;;;;;;;;25.30;50.10;;;;;;5074073;28;1020;-40
2022/04/14 03:51:00;;;;;;;;;;;25.30;50.30;;;;;;5074169;28;925;-43
2022/04/14 03:53:27;;;;;;;;;;;25.20;50.30;;;;;;5074196;28;1906;-40
2022/04/14 03:55:53;;;;;;;;;;;25.30;50.10;;;;;;5073902;28;1015;-43
2022/04/14 03:58:21;;;;;;;;;;;25.30;50.10;;;;;;5074020;28;977;-39
2022/04/14 04:00:48;;;;;;;;;;;25.30;50.30;;;;;;5073875;28;988;-42
2022/04/14 04:03:15;;;;;;;;;;;25.30;50.10;;;;;;5073969;28;1004;-41
2022/04/14 04:05:41;;;;;;;;;;;25.30;50.10;;;;;;5072972;28;897;-43
2022/04/14 04:08:08;;;;;;;;;;;25.30;50.20;;;;;;5072800;28;920;-39
2022/04/14 04:10:35;;;;;;;;;;;25.20;50.20;;;;;;5073340;28;1078;-40
2022/04/14 04:13:02;;;;;;;;;;;25.30;50.30;;;;;;5072938;28;1898;-42
2022/04/14 04:15:30;;;;;;;;;;;25.20;50.20;;;;;;5072809;28;933;-42
2022/04/14 04:17:57;;;;;;;;;;;25.30;50.20;;;;;;5072393;28;885;-42
2022/04/14 04:20:25;;;;;;;;;;;25.20;50.20;;;;;;5072999;28;986;-43
2022/04/14 04:22:51;;;;;;;;;;;25.30;49.90;;;;;;5072744;28;1016;-44
2022/04/14 04:25:18;;;;;;;;;;;25.30;49.90;;;;;;5072526;28;942;-43
2022/04/14 04:27:45;;;;;;;;;;;25.30;49.90;;;;;;5072918;28;1088;-39
2022/04/14 04:30:12;;;;;;;;;;;25.30;50.10;;;;;;5072701;28;896;-42
2022/04/14 04:32:40;;;;;;;;;;;25.30;49.80;;;;;;5072802;28;1107;-43
2022/04/14 04:35:07;;;;;;;;;;;25.30;49.80;;;;;;5072059;28;1992;-41
2022/04/14 04:37:34;;;;;;;;;;;25.40;49.80;;;;;;5072153;28;1004;-43
2022/04/14 04:40:01;;;;;;;;;;;25.40;49.80;;;;;;5072472;28;1223;-41
2022/04/14 04:42:28;;;;;;;;;;;25.40;49.80;;;;;;5072232;28;953;-43
2022/04/14 04:44:54;;;;;;;;;;;25.30;49.80;;;;;;5071811;28;944;-44
2022/04/14 04:47:21;;;;;;;;;;;25.30;49.80;;;;;;5072849;28;1028;-42
2022/04/14 04:49:49;;;;;;;;;;;25.30;50.00;;;;;;5073033;28;933;-41
2022/04/14 04:52:16;;;;;;;;;;;25.40;49.90;;;;;;5071319;28;1000;-41
2022/04/14 04:54:43;;;;;;;;;;;25.40;49.90;;;;;;5071014;28;1926;-43
2022/04/14 04:57:09;;;;;;;;;;;25.30;50.00;;;;;;5070972;28;1047;-39
2022/04/14 04:59:36;;;;;;;;;;;25.30;49.80;;;;;;5073059;28;944;-41
2022/04/14 05:02:03;;;;;;;;;;;25.40;49.90;;;;;;5074822;28;968;-41
2022/04/14 05:04:30;;;;;;;;;;;25.30;49.80;;;;;;5074632;28;964;-40
2022/04/14 05:06:58;;;;;;;;;;;25.30;51.00;;;;;;5074443;28;1012;-42
2022/04/14 05:09:25;;;;;;;;;;;25.40;49.90;;;;;;5074271;28;992;-42
2022/04/14 05:11:51;;;;;;;;;;;25.30;49.80;;;;;;5073600;28;884;-42
2022/04/14 05:14:18;;;;;;;;;;;25.30;49.80;;;;;;5073032;28;1983;-42
2022/04/14 05:16:45;;;;;;;;;;;25.40;49.80;;;;;;5073186;28;1581;-42
2022/04/14 05:19:12;;;;;;;;;;;25.30;49.60;;;;;;5073864;28;945;-41
2022/04/14 05:21:39;;;;;;;;;;;25.40;49.90;;;;;;5073816;28;1000;-43
2022/04/14 05:24:07;;;;;;;;;;;25.40;51.00;;;;;;5073767;28;897;-43
2022/04/14 05:26:34;;;;;;;;;;;25.30;50.30;;;;;;5071498;28;1850;-40
2022/04/14 05:29:01;;;;;;;;;;;25.40;50.20;;;;;;5071871;28;1008;-39
2022/04/14 05:31:28;;;;;;;;;;;25.40;50.00;;;;;;5072412;28;1110;-44
2022/04/14 05:33:55;;;;;;;;;;;25.40;50.20;;;;;;5072326;28;1898;-43
2022/04/14 05:36:21;;;;;;;;;;;25.40;49.90;;;;;;5071937;28;975;-43
2022/04/14 05:38:48;;;;;;;;;;;25.40;50.00;;;;;;5073590;28;1087;-39
2022/04/14 05:41:17;;;;;;;;;;;25.30;50.30;;;;;;5072890;28;964;-45
2022/04/14 05:43:43;;;;;;;;;;;25.50;50.70;;;;;;5073280;28;1852;-45
2022/04/14 05:46:10;;;;;;;;;;;25.40;50.10;;;;;;5071989;28;1013;-45
2022/04/14 05:48:37;;;;;;;;;;;25.40;50.50;;;;;;5073103;28;1329;-45
2022/04/14 05:51:05;;;;;;;;;;;25.40;50.40;;;;;;5073116;28;1461;-45
2022/04/14 05:53:32;;;;;;;;;;;25.40;50.20;;;;;;5073027;28;968;-45
2022/04/14 05:55:59;;;;;;;;;;;25.40;50.30;;;;;;5072123;28;1914;-45
2022/04/14 05:58:27;;;;;;;;;;;25.40;50.50;;;;;;5072457;28;984;-40
2022/04/14 06:00:54;;;;;;;;;;;25.40;51.60;;;;;;5072070;28;1826;-43
2022/04/14 06:03:21;;;;;;;;;;;25.40;50.70;;;;;;5071860;28;968;-43
2022/04/14 06:05:47;;;;;;;;;;;25.30;50.80;;;;;;5071896;28;908;-43
2022/04/14 06:08:14;;;;;;;;;;;25.30;50.80;;;;;;5069580;28;924;-43
2022/04/14 06:10:41;;;;;;;;;;;25.20;50.90;;;;;;5070452;28;960;-43
2022/04/14 06:13:07;;;;;;;;;;;25.20;50.90;;;;;;5071051;28;937;-43
2022/04/14 06:15:36;;;;;;;;;;;25.20;50.90;;;;;;5069633;28;1961;-40
2022/04/14 06:18:02;;;;;;;;;;;25.20;50.90;;;;;;5073043;28;916;-41
2022/04/14 06:20:29;;;;;;;;;;;25.20;50.80;;;;;;5072336;28;1013;-43
2022/04/14 06:22:58;;;;;;;;;;;25.20;50.70;;;;;;5072782;28;873;-43
2022/04/14 06:25:25;;;;;;;;;;;25.20;50.60;;;;;;5072249;28;953;-43
2022/04/14 06:27:53;;;;;;;;;;;25.20;50.70;;;;;;5070773;28;1043;-40
2022/04/14 06:30:20;;;;;;;;;;;25.20;50.80;;;;;;5070369;28;1761;-42
2022/04/14 06:32:58;;;;;;;;;;;25.20;50.80;;;;;;5071632;28;1068;-42
2022/04/14 06:35:25;;;;;;;;;;;25.20;50.70;;;;;;5069371;28;1906;-41
2022/04/14 06:37:52;;;;;;;;;;;25.20;50.70;;;;;;5071357;28;997;-43
2022/04/14 06:40:19;;;;;;;;;;;25.20;50.60;;;;;;5069661;28;1032;-44
2022/04/14 06:42:46;;;;;;;;;;;25.20;50.70;;;;;;5069563;28;1132;-40
2022/04/14 06:45:13;;;;;;;;;;;25.20;50.50;;;;;;5070164;28;865;-42
2022/04/14 06:47:40;;;;;;;;;;;25.20;50.70;;;;;;5070680;28;1655;-40
2022/04/14 06:50:08;;;;;;;;;;;25.20;50.60;;;;;;5070329;28;876;-43
2022/04/14 06:52:37;;;;;;;;;;;25.20;50.60;;;;;;5069522;28;978;-43
2022/04/14 06:55:04;;;;;;;;;;;25.20;50.60;;;;;;5068679;28;2001;-42
2022/04/14 06:57:30;;;;;;;;;;;25.20;50.70;;;;;;5067575;28;1220;-41
2022/04/14 06:59:57;;;;;;;;;;;25.20;50.70;;;;;;5068334;28;1842;-42
2022/04/14 07:02:24;;;;;;;;;;;25.20;50.50;;;;;;5067719;28;886;-40
2022/04/14 07:04:51;;;;;;;;;;;25.20;50.60;;;;;;5068188;28;839;-41
2022/04/14 07:07:19;;;;;;;;;;;25.20;50.70;;;;;;5068833;28;996;-40
2022/04/14 07:09:46;;;;;;;;;;;25.20;50.70;;;;;;5070160;28;894;-42
2022/04/14 07:12:13;;;;;;;;;;;25.20;50.70;;;;;;5069356;28;1074;-42
2022/04/14 07:14:40;;;;;;;;;;;25.20;50.60;;;;;;5068778;28;1909;-43
2022/04/14 07:17:07;;;;;;;;;;;25.20;50.60;;;;;;5068935;28;1071;-43
2022/04/14 07:19:33;;;;;;;;;;;25.20;50.70;;;;;;5069456;28;949;-42
2022/04/14 07:22:00;;;;;;;;;;;25.20;50.60;;;;;;5069024;28;1017;-41
2022/04/14 07:24:28;;;;;;;;;;;25.20;50.60;;;;;;5069548;28;932;-39
2022/04/14 07:26:55;;;;;;;;;;;25.20;50.60;;;;;;5068360;28;881;-41
2022/04/14 07:29:22;;;;;;;;;;;25.20;50.60;;;;;;5068498;28;893;-41
2022/04/14 07:31:49;;;;;;;;;;;25.20;50.50;;;;;;5068281;28;985;-40
2022/04/14 07:34:16;;;;;;;;;;;25.20;50.70;;;;;;5068150;28;1996;-39
2022/04/14 07:36:44;;;;;;;;;;;25.20;50.50;;;;;;5069260;28;893;-40
2022/04/14 07:39:11;;;;;;;;;;;25.20;50.60;;;;;;5069460;28;1163;-43
2022/04/14 07:41:39;;;;;;;;;;;25.20;50.50;;;;;;5068167;28;1008;-42
2022/04/14 07:44:06;;;;;;;;;;;25.20;50.60;;;;;;5068994;28;904;-42
2022/04/14 07:46:35;;;;;;;;;;;25.20;50.50;;;;;;5068508;28;969;-39
2022/04/14 07:49:02;;;;;;;;;;;25.20;50.40;;;;;;5068818;28;1052;-40
2022/04/14 07:51:29;;;;;;;;;;;25.20;50.50;;;;;;5066560;28;999;-39
2022/04/14 07:53:55;;;;;;;;;;;25.20;50.50;;;;;;5068295;28;904;-40
2022/04/14 07:56:22;;;;;;;;;;;25.30;50.30;;;;;;5066691;28;1980;-42
2022/04/14 07:58:50;;;;;;;;;;;25.30;50.50;;;;;;5067535;28;1024;-43
2022/04/14 08:01:18;;;;;;;;;;;25.20;50.40;;;;;;5068199;28;876;-41
2022/04/14 08:03:46;;;;;;;;;;;25.20;50.40;;;;;;5067680;28;885;-43
2022/04/14 08:06:13;;;;;;;;;;;25.20;50.50;;;;;;5068003;28;1033;-43
2022/04/14 08:08:39;;;;;;;;;;;25.20;50.50;;;;;;5067763;28;990;-42
2022/04/14 08:11:08;;;;;;;;;;;25.20;50.50;;;;;;5066876;28;965;-43
2022/04/14 08:13:37;;;;;;;;;;;25.20;50.40;;;;;;5067392;28;1013;-41
2022/04/14 08:16:07;;;;;;;;;;;25.20;50.40;;;;;;5067258;28;1914;-41
2022/04/14 08:18:36;;;;;;;;;;;25.20;50.40;;;;;;5069262;28;897;-42
2022/04/14 08:21:03;;;;;;;;;;;25.20;50.50;;;;;;5068479;28;869;-42
2022/04/14 08:23:30;;;;;;;;;;;25.20;50.50;;;;;;5067916;28;1084;-40
2022/04/14 08:25:57;;;;;;;;;;;25.20;50.40;;;;;;5068057;28;996;-42
2022/04/14 08:28:24;;;;;;;;;;;25.30;50.30;;;;;;5066683;28;905;-40
2022/04/14 08:30:52;;;;;;;;;;;25.20;50.20;;;;;;5067375;28;1087;-40
2022/04/14 08:33:23;;;;;;;;;;;25.20;50.30;;;;;;5065800;28;944;-42
2022/04/14 08:35:50;;;;;;;;;;;25.20;50.30;;;;;;5070706;28;1983;-43
2022/04/14 08:38:17;;;;;;;;;;;25.20;50.30;;;;;;5071262;28;1142;-39
2022/04/14 08:40:45;;;;;;;;;;;25.20;50.30;;;;;;5069844;28;1072;-41
2022/04/14 08:43:12;;;;;;;;;;;25.30;50.30;;;;;;5069687;28;936;-39
2022/04/14 08:45:44;;;;;;;;;;;25.20;50.20;;;;;;5070086;28;920;-41
2022/04/14 08:48:12;;;;;;;;;;;25.30;50.20;;;;;;5070738;28;929;-44
2022/04/14 08:50:40;;;;;;;;;;;25.20;51.40;;;;;;5070507;28;1033;-39
2022/04/14 08:53:07;;;;;;;;;;;25.30;50.30;;;;;;5069942;28;913;-41
2022/04/14 08:55:35;;;;;;;;;;;25.30;50.30;;;;;;5070852;28;1938;-41
2022/04/14 08:58:01;;;;;;;;;;;25.30;50.30;;;;;;5070655;28;1857;-43
2022/04/14 09:00:28;;;;;;;;;;;25.30;50.30;;;;;;5068752;28;1047;-43
2022/04/14 09:02:57;;;;;;;;;;;25.30;50.30;;;;;;5071718;28;917;-40
2022/04/14 09:05:24;;;;;;;;;;;25.30;50.30;;;;;;5070239;28;994;-42
2022/04/14 09:07:53;;;;;;;;;;;25.30;50.30;;;;;;5070378;28;949;-39
2022/04/14 09:10:19;;;;;;;;;;;25.30;50.20;;;;;;5070884;28;961;-38
2022/04/14 09:12:47;;;;;;;;;;;25.20;50.20;;;;;;5070091;28;1108;-37
2022/04/14 09:15:14;;;;;;;;;;;25.30;50.10;;;;;;5069636;28;1910;-39
2022/04/14 09:17:41;;;;;;;;;;;25.20;49.90;;;;;;5070351;28;1091;-38
2022/04/14 09:20:37;;;;;;;;;;;25.30;50.10;;;;;;5069632;28;997;-40
2022/04/14 09:23:15;;;;;;;;;;;25.20;50.00;;;;;;5052458;28;1367;-40
2022/04/14 09:25:42;;;;;;;;;;;25.20;50.10;;;;;;5070772;28;989;-41
2022/04/14 09:28:09;;;;;;;;;;;25.20;50.10;;;;;;5070624;28;913;-43
2022/04/14 09:30:36;;;;;;;;;;;25.20;50.30;;;;;;5069739;28;992;-45
2022/04/14 09:33:03;;;;;;;;;;;25.20;50.00;;;;;;5069404;28;952;-40
2022/04/14 09:35:31;;;;;;;;;;;25.30;50.00;;;;;;5069043;28;1898;-42
2022/04/14 09:38:01;;;;;;;;;;;25.30;49.90;;;;;;5070492;28;1004;-41
2022/04/14 09:40:33;;;;;;;;;;;25.30;49.80;;;;;;5069521;28;1028;-40
2022/04/14 09:43:00;;;;;;;;;;;25.40;49.70;;;;;;5069034;28;1035;-42
2022/04/14 09:45:28;;;;;;;;;;;25.40;49.80;;;;;;5069380;28;1027;-42
2022/04/14 09:47:55;;;;;;;;;;;25.40;49.80;;;;;;5070028;28;873;-43
2022/04/14 09:50:29;;;;;;;;;;;25.30;49.80;;;;;;5070075;28;984;-42
2022/04/14 09:53:02;;;;;;;;;;;25.30;49.80;;;;;;5069993;28;988;-40
2022/04/14 09:55:29;;;;;;;;;;;25.30;49.80;;;;;;5076716;28;1999;-41
2022/04/14 09:58:16;;;;;;;;;;;25.30;49.80;;;;;;5090180;28;1129;-39
2022/04/14 10:00:43;;;;;;;;;;;25.30;49.80;;;;;;5088565;28;988;-40
2022/04/14 10:03:12;;;;;;;;;;;25.30;49.80;;;;;;5089835;28;880;-38
2022/04/14 10:05:39;;;;;;;;;;;25.30;49.80;;;;;;5088299;28;972;-38
2022/04/14 10:08:08;;;;;;;;;;;25.30;49.80;;;;;;5089414;28;940;-41
2022/04/14 10:10:38;;;;;;;;;;;25.30;50.90;;;;;;5088584;28;1012;-41
2022/04/14 10:13:06;;;;;;;;;;;25.30;49.90;;;;;;5089061;28;1242;-43
2022/04/14 10:15:35;;;;;;;;;;;25.30;49.80;;;;;;5089579;28;1910;-39
2022/04/14 10:18:05;;;;;;;;;;;25.30;49.80;;;;;;5090540;28;850;-43
2022/04/14 10:20:31;;;;;;;;;;;25.30;49.90;;;;;;5091026;28;1184;-40
2022/04/14 10:22:59;;;;;;;;;;;25.30;49.90;;;;;;5090137;28;992;-39
2022/04/14 10:25:26;;;;;;;;;;;25.30;49.80;;;;;;5089059;28;1200;-40
2022/04/14 10:27:54;;;;;;;;;;;25.30;49.80;;;;;;5089618;28;1042;-39
2022/04/14 10:30:21;;;;;;;;;;;25.30;49.80;;;;;;5088877;28;904;-40
2022/04/14 10:32:49;;;;;;;;;;;25.40;49.90;;;;;;5088532;28;1116;-41
2022/04/14 10:35:16;;;;;;;;;;;25.40;49.90;;;;;;5089255;28;1910;-41
2022/04/14 10:37:45;;;;;;;;;;;25.40;50.00;;;;;;5088266;28;1133;-40
2022/04/14 10:40:12;;;;;;;;;;;25.30;49.90;;;;;;5089246;28;1195;-39
2022/04/14 10:42:40;;;;;;;;;;;25.40;49.90;;;;;;5087232;28;997;-42
2022/04/14 10:45:16;;;;;;;;;;;25.30;49.90;;;;;;5088807;28;1005;-39
2022/04/14 10:48:00;;;;;;;;;;;25.40;49.90;;;;;;5088797;28;1013;-39
2022/04/14 10:50:30;;;;;;;;;;;25.30;49.80;;;;;;5076877;28;1051;-39
2022/04/14 10:53:04;;;;;;;;;;;25.30;49.80;;;;;;5086679;28;1015;-38
2022/04/14 10:55:35;;;;;;;;;;;25.40;50.10;;;;;;5087778;28;1914;-39
2022/04/14 10:58:02;;;;;;;;;;;25.40;51.10;;;;;;5087446;28;972;-42
2022/04/14 11:00:38;;;;;;;;;;;25.40;49.90;;;;;;5086231;28;984;-39
2022/04/14 11:03:05;;;;;;;;;;;25.40;49.80;;;;;;5087472;28;853;-42
2022/04/14 11:05:38;;;;;;;;;;;25.40;49.80;;;;;;5087379;28;1382;-43
2022/04/14 11:08:23;;;;;;;;;;;25.40;49.90;;;;;;5087671;28;1007;-41
2022/04/14 11:10:53;;;;;;;;;;;25.40;49.90;;;;;;5087815;28;1406;-42
2022/04/14 11:13:20;;;;;;;;;;;25.40;49.90;;;;;;5087628;28;904;-38
2022/04/14 11:15:47;;;;;;;;;;;25.40;49.90;;;;;;5088280;28;1901;-39
2022/04/14 11:18:14;;;;;;;;;;;25.50;49.90;;;;;;5089980;28;966;-41
2022/04/14 11:20:56;;;;;;;;;;;25.50;49.90;;;;;;5088345;28;936;-42
2022/04/14 11:23:26;;;;;;;;;;;25.40;49.80;;;;;;5087867;28;924;-40
2022/04/14 11:25:53;;;;;;;;;;;25.50;49.90;;;;;;5088840;28;909;-42
2022/04/14 11:28:22;;;;;;;;;;;25.50;49.80;;;;;;5086640;28;854;-41
2022/04/14 11:30:49;;;;;;;;;;;25.60;49.70;;;;;;5087108;28;869;-39
2022/04/14 11:33:22;;;;;;;;;;;25.50;49.80;;;;;;5087593;28;944;-42
2022/04/14 11:35:49;;;;;;;;;;;25.50;49.90;;;;;;5087067;28;1905;-39
2022/04/14 11:38:34;;;;;;;;;;;25.50;49.80;;;;;;5085421;28;1263;-40
2022/04/14 11:41:02;;;;;;;;;;;25.50;49.70;;;;;;5087984;28;995;-39
2022/04/14 11:43:30;;;;;;;;;;;25.50;49.90;;;;;;5088396;28;1064;-38
2022/04/14 11:45:57;;;;;;;;;;;25.50;49.80;;;;;;5087799;28;891;-39
2022/04/14 11:48:24;;;;;;;;;;;25.50;49.90;;;;;;5088729;28;973;-39
2022/04/14 11:50:55;;;;;;;;;;;25.50;49.80;;;;;;5087257;28;863;-40
2022/04/14 11:53:29;;;;;;;;;;;25.60;49.80;;;;;;5088183;28;1004;-41
2022/04/14 11:55:56;;;;;;;;;;;25.50;49.70;;;;;;5086572;28;1977;-40
2022/04/14 11:58:24;;;;;;;;;;;25.50;50.30;;;;;;5087084;28;853;-42
2022/04/14 12:00:51;;;;;;;;;;;25.50;49.90;;;;;;5086174;28;1008;-39
2022/04/14 12:03:30;;;;;;;;;;;25.50;49.90;;;;;;5084208;28;872;-39
2022/04/14 12:06:01;;;;;;;;;;;25.50;49.90;;;;;;5084736;28;1023;-43
2022/04/14 12:08:28;;;;;;;;;;;25.50;49.90;;;;;;5085622;28;850;-42
2022/04/14 12:10:55;;;;;;;;;;;25.50;49.90;;;;;;5088713;28;990;-39
2022/04/14 12:13:23;;;;;;;;;;;25.50;49.90;;;;;;5086195;28;1789;-41
2022/04/14 12:16:01;;;;;;;;;;;25.50;49.90;;;;;;5084433;28;1971;-43
2022/04/14 12:18:28;;;;;;;;;;;25.50;49.70;;;;;;5087384;28;964;-42
2022/04/14 12:20:55;;;;;;;;;;;25.60;49.70;;;;;;5086423;28;1180;-40
2022/04/14 12:23:22;;;;;;;;;;;25.60;49.60;;;;;;5087584;28;916;-43
2022/04/14 12:25:49;;;;;;;;;;;25.60;49.80;;;;;;5086748;28;1015;-43
2022/04/14 12:28:16;;;;;;;;;;;25.60;49.80;;;;;;5085725;28;927;-40
2022/04/14 12:30:43;;;;;;;;;;;25.60;49.70;;;;;;5086450;28;952;-42
2022/04/14 12:33:11;;;;;;;;;;;25.60;49.70;;;;;;5088181;28;888;-41
2022/04/14 12:35:38;;;;;;;;;;;25.60;49.50;;;;;;5086677;28;1269;-39
2022/04/14 12:38:11;;;;;;;;;;;25.60;49.70;;;;;;5085510;28;1937;-39
2022/04/14 12:40:38;;;;;;;;;;;25.60;49.70;;;;;;5085659;28;999;-41
2022/04/14 12:43:05;;;;;;;;;;;25.60;49.90;;;;;;5086212;28;860;-40
2022/04/14 12:45:37;;;;;;;;;;;25.50;49.90;;;;;;5086564;28;1022;-38
2022/04/14 12:48:05;;;;;;;;;;;25.50;49.90;;;;;;5085417;28;921;-39
2022/04/14 12:50:33;;;;;;;;;;;25.50;49.90;;;;;;5084480;28;1004;-42
2022/04/14 12:53:00;;;;;;;;;;;25.50;50.00;;;;;;5082983;28;935;-39
2022/04/14 12:55:28;;;;;;;;;;;25.50;49.90;;;;;;5086014;28;1023;-42
2022/04/14 12:58:08;;;;;;;;;;;25.50;49.90;;;;;;5086631;28;1913;-42
2022/04/14 13:00:35;;;;;;;;;;;25.50;50.00;;;;;;5085978;28;1243;-38
2022/04/14 13:03:04;;;;;;;;;;;25.50;49.90;;;;;;5084552;28;932;-38
2022/04/14 13:05:37;;;;;;;;;;;25.50;49.90;;;;;;5083871;28;989;-39
2022/04/14 13:08:05;;;;;;;;;;;25.50;49.90;;;;;;5084757;28;898;-39
2022/04/14 13:10:34;;;;;;;;;;;25.50;50.00;;;;;;5085204;28;977;-39
2022/04/14 13:13:02;;;;;;;;;;;25.50;49.90;;;;;;5084693;28;1274;-38
2022/04/14 13:15:29;;;;;;;;;;;25.50;49.90;;;;;;5084883;28;884;-38
2022/04/14 13:17:57;;;;;;;;;;;25.50;49.90;;;;;;5085473;28;1960;-40
2022/04/14 13:20:32;;;;;;;;;;;25.50;49.90;;;;;;5085475;28;1005;-43
2022/04/14 13:22:58;;;;;;;;;;;25.50;49.90;;;;;;5087277;28;936;-40
2022/04/14 13:25:27;;;;;;;;;;;25.50;50.00;;;;;;5089084;28;992;-40
2022/04/14 13:27:53;;;;;;;;;;;25.60;50.00;;;;;;5090564;28;935;-41
2022/04/14 13:30:21;;;;;;;;;;;25.60;49.90;;;;;;5087804;28;893;-41
2022/04/14 13:32:48;;;;;;;;;;;25.60;49.70;;;;;;5085360;28;1044;-41
2022/04/14 13:35:15;;;;;;;;;;;25.70;49.60;;;;;;5089609;28;940;-43
2022/04/14 13:37:43;;;;;;;;;;;25.70;49.80;;;;;;5089177;28;1996;-39
2022/04/14 13:40:12;;;;;;;;;;;25.60;49.90;;;;;;5088690;28;1156;-39
2022/04/14 13:42:41;;;;;;;;;;;25.60;49.80;;;;;;5088031;28;984;-39
2022/04/14 13:45:09;;;;;;;;;;;25.60;49.90;;;;;;5089287;28;1031;-40
2022/04/14 13:47:37;;;;;;;;;;;25.60;49.90;;;;;;5089256;28;998;-40
2022/04/14 13:50:05;;;;;;;;;;;25.60;49.90;;;;;;5089160;28;1030;-41
2022/04/14 13:52:32;;;;;;;;;;;25.60;50.00;;;;;;5088249;28;1052;-39
2022/04/14 13:54:59;;;;;;;;;;;25.60;49.90;;;;;;5089602;28;918;-39
2022/04/14 13:57:26;;;;;;;;;;;25.60;49.90;;;;;;5088162;28;1906;-41
2022/04/14 13:59:54;;;;;;;;;;;25.60;49.90;;;;;;5089604;28;920;-40
2022/04/14 14:02:21;;;;;;;;;;;25.60;49.80;;;;;;5092019;28;915;-41
2022/04/14 14:04:48;;;;;;;;;;;25.60;49.90;;;;;;5091773;28;931;-40
2022/04/14 14:07:14;;;;;;;;;;;25.60;49.90;;;;;;5087477;28;896;-41
2022/04/14 14:09:41;;;;;;;;;;;25.60;49.90;;;;;;5088066;28;924;-38
2022/04/14 14:12:09;;;;;;;;;;;25.60;49.90;;;;;;5086755;28;927;-40
2022/04/14 14:14:36;;;;;;;;;;;25.60;50.00;;;;;;5086808;28;878;-39
2022/04/14 14:17:04;;;;;;;;;;;25.60;50.00;;;;;;5088767;28;1898;-40
2022/04/14 14:19:31;;;;;;;;;;;25.70;50.00;;;;;;5089445;28;877;-42
2022/04/14 14:21:58;;;;;;;;;;;25.70;49.70;;;;;;5089454;28;1081;-42
2022/04/14 14:24:26;;;;;;;;;;;25.80;49.70;;;;;;5090880;28;1022;-41
2022/04/14 14:26:53;;;;;;;;;;;25.80;49.60;;;;;;5091547;28;1872;-40
2022/04/14 14:29:20;;;;;;;;;;;25.80;49.40;;;;;;5090558;28;912;-39
2022/04/14 14:31:46;;;;;;;;;;;25.80;49.60;;;;;;5089483;28;1014;-38
2022/04/14 14:34:16;;;;;;;;;;;25.70;49.70;;;;;;5089221;28;1005;-41
2022/04/14 14:36:45;;;;;;;;;;;25.70;49.80;;;;;;5086737;28;1981;-40
2022/04/14 14:39:11;;;;;;;;;;;25.70;49.60;;;;;;5087623;28;1125;-38
2022/04/14 14:41:38;;;;;;;;;;;25.80;49.60;;;;;;5086791;28;1883;-40